Green Fast — ZDHA9 — position and weather

sailwx.info

Track history (hours):
 
Tides and Currents Weather Stations Pressure Air Temp Water Temp Dewpoint Dewpoint Depression Visibility Wind Speed Wind Dir Waves Ship Positions

Green Fast

Last reported at 2017-Oct-16 21:58 UTC. Time now 2017-Oct-16 22:23 UTC.
Position N 26°08' W 080°04'.

Length 118 m; draft 5.2 m.

Type: Cargo ship. MMSI: 236294000.

Date/timePositionNaut miles runAvg speedWind from/ knotsBaromVisibWave heightAir tempDewpointWater temp
2017-Oct-16 21:58N 26°08' W 080°04'0 0.0
2017-Oct-16 21:28N 26°08' W 080°04'0 0.0
2017-Oct-16 20:58N 26°08' W 080°04'0 0.0
2017-Oct-16 20:25N 26°08' W 080°04'0 0.0
2017-Oct-16 19:58N 26°08' W 080°04'0 0.1
2017-Oct-16 19:28N 26°08' W 080°04'0 0.1
2017-Oct-16 18:58N 26°08' W 080°04'0 0.0
2017-Oct-16 18:28N 26°08' W 080°04'0 0.0
2017-Oct-16 17:58N 26°08' W 080°04'0 0.0
2017-Oct-16 17:28N 26°08' W 080°04'0 0.0
2017-Oct-16 16:55N 26°08' W 080°04'0 0.0
2017-Oct-16 16:29N 26°08' W 080°04'0 0.0
2017-Oct-16 15:59N 26°08' W 080°04'0 0.0
2017-Oct-16 15:29N 26°08' W 080°04'0 0.0
2017-Oct-16 14:59N 26°08' W 080°04'0 0.0
2017-Oct-16 14:28N 26°08' W 080°04'0 0.0
2017-Oct-16 13:25N 26°08' W 080°04'0 0.2
2017-Oct-16 12:52N 26°08' W 080°04'0 0.1
2017-Oct-16 12:25N 26°07' W 080°04'0 0.1
2017-Oct-16 11:58N 26°07' W 080°04'0 0.0
2017-Oct-16 11:25N 26°07' W 080°04'0 0.0
2017-Oct-16 10:55N 26°07' W 080°04'0 0.0
2017-Oct-16 10:25N 26°07' W 080°04'0 0.0
2017-Oct-16 09:55N 26°07' W 080°04'0 0.0
2017-Oct-16 09:28N 26°07' W 080°04'0 0.0
2017-Oct-16 08:58N 26°07' W 080°04'0 0.0
2017-Oct-16 08:28N 26°07' W 080°04'0 0.0
2017-Oct-16 07:58N 26°07' W 080°04'0 0.0
2017-Oct-16 07:28N 26°07' W 080°04'0 0.0
2017-Oct-16 06:58N 26°07' W 080°04'0 0.0
2017-Oct-16 06:28N 26°07' W 080°04'0 0.0
2017-Oct-16 05:58N 26°07' W 080°04'0 0.0
2017-Oct-16 05:28N 26°07' W 080°05'0 0.0
2017-Oct-16 04:58N 26°07' W 080°05'0 0.1
2017-Oct-16 04:28N 26°07' W 080°04'2 3.5
2017-Oct-16 04:00N 26°06' W 080°05'2 4.3
2017-Oct-16 03:29N 26°04' W 080°07'0 0.0
2017-Oct-16 02:50N 26°04' W 080°07'0 0.0
2017-Oct-16 02:20N 26°04' W 080°07'0 0.0
2017-Oct-16 01:50N 26°04' W 080°07'0 0.0
2017-Oct-16 01:23N 26°04' W 080°07'0 0.0
2017-Oct-16 00:50N 26°04' W 080°07'0 0.0
2017-Oct-16 00:23N 26°04' W 080°07'0 0.0
2017-Oct-15 23:50N 26°04' W 080°07'0 0.0
2017-Oct-15 23:23N 26°04' W 080°07'0 0.0
2017-Oct-15 22:53N 26°04' W 080°07'0 0.0
2017-Oct-15 22:26N 26°04' W 080°07'0 0.0
2017-Oct-15 21:56N 26°04' W 080°07'0 0.0
2017-Oct-15 21:26N 26°04' W 080°07'0 0.0
2017-Oct-15 21:00N 26°04' W 080°07'0 0.8
2017-Oct-15 20:30N 26°05' W 080°07'3 6.3
2017-Oct-15 20:00N 26°06' W 080°04'4 8.6
2017-Oct-15 19:30N 26°05' W 079°59'4 9.0
2017-Oct-15 19:00N 26°04' W 079°54'4 8.8
2017-Oct-15 18:30N 26°04' W 079°49'4 8.9
2017-Oct-15 18:00N 26°03' W 079°44'4 8.8
2017-Oct-15 17:30N 26°03' W 079°39'5 7.3
2017-Oct-15 16:52N 25°58' W 079°37'412.0
2017-Oct-15 16:30N 25°54' W 079°37'611.8
2017-Oct-15 16:00N 25°48' W 079°37'611.7
2017-Oct-15 15:30N 25°42' W 079°37'712.0
2017-Oct-15 14:55N 25°35' W 079°37'  
Track history (hours):
 
Tides and Currents Weather Stations Pressure Air Temp Water Temp Dewpoint Dewpoint Depression Visibility Wind Speed Wind Dir Waves Ship Positions

Green Fast

Last reported at 2017-Oct-16 21:58 UTC. Time now 2017-Oct-16 22:23 UTC.
Position N 26°08' W 080°04'.

Length 118 m; draft 5.2 m.

Type: Cargo ship. MMSI: 236294000.

Date/timePositionNaut miles runAvg speedWind from/ knotsBaromVisibWave heightAir tempDewpointWater temp
2017-Oct-16 21:58N 26°08' W 080°04'0 0.0
2017-Oct-16 21:28N 26°08' W 080°04'0 0.0
2017-Oct-16 20:58N 26°08' W 080°04'0 0.0
2017-Oct-16 20:25N 26°08' W 080°04'0 0.0
2017-Oct-16 19:58N 26°08' W 080°04'0 0.1
2017-Oct-16 19:28N 26°08' W 080°04'0 0.1
2017-Oct-16 18:58N 26°08' W 080°04'0 0.0
2017-Oct-16 18:28N 26°08' W 080°04'0 0.0
2017-Oct-16 17:58N 26°08' W 080°04'0 0.0
2017-Oct-16 17:28N 26°08' W 080°04'0 0.0
2017-Oct-16 16:55N 26°08' W 080°04'0 0.0
2017-Oct-16 16:29N 26°08' W 080°04'0 0.0
2017-Oct-16 15:59N 26°08' W 080°04'0 0.0
2017-Oct-16 15:29N 26°08' W 080°04'0 0.0
2017-Oct-16 14:59N 26°08' W 080°04'0 0.0
2017-Oct-16 14:28N 26°08' W 080°04'0 0.0
2017-Oct-16 13:25N 26°08' W 080°04'0 0.2
2017-Oct-16 12:52N 26°08' W 080°04'0 0.1
2017-Oct-16 12:25N 26°07' W 080°04'0 0.1
2017-Oct-16 11:58N 26°07' W 080°04'0 0.0
2017-Oct-16 11:25N 26°07' W 080°04'0 0.0
2017-Oct-16 10:55N 26°07' W 080°04'0 0.0
2017-Oct-16 10:25N 26°07' W 080°04'0 0.0
2017-Oct-16 09:55N 26°07' W 080°04'0 0.0
2017-Oct-16 09:28N 26°07' W 080°04'0 0.0
2017-Oct-16 08:58N 26°07' W 080°04'0 0.0
2017-Oct-16 08:28N 26°07' W 080°04'0 0.0
2017-Oct-16 07:58N 26°07' W 080°04'0 0.0
2017-Oct-16 07:28N 26°07' W 080°04'0 0.0
2017-Oct-16 06:58N 26°07' W 080°04'0 0.0
2017-Oct-16 06:28N 26°07' W 080°04'0 0.0
2017-Oct-16 05:58N 26°07' W 080°04'0 0.0
2017-Oct-16 05:28N 26°07' W 080°05'0 0.0
2017-Oct-16 04:58N 26°07' W 080°05'0 0.1
2017-Oct-16 04:28N 26°07' W 080°04'2 3.5
2017-Oct-16 04:00N 26°06' W 080°05'2 4.3
2017-Oct-16 03:29N 26°04' W 080°07'0 0.0
2017-Oct-16 02:50N 26°04' W 080°07'0 0.0
2017-Oct-16 02:20N 26°04' W 080°07'0 0.0
2017-Oct-16 01:50N 26°04' W 080°07'0 0.0
2017-Oct-16 01:23N 26°04' W 080°07'0 0.0
2017-Oct-16 00:50N 26°04' W 080°07'0 0.0
2017-Oct-16 00:23N 26°04' W 080°07'0 0.0
2017-Oct-15 23:50N 26°04' W 080°07'0 0.0
2017-Oct-15 23:23N 26°04' W 080°07'0 0.0
2017-Oct-15 22:53N 26°04' W 080°07'0 0.0
2017-Oct-15 22:26N 26°04' W 080°07'0 0.0
2017-Oct-15 21:56N 26°04' W 080°07'0 0.0
2017-Oct-15 21:26N 26°04' W 080°07'0 0.0
2017-Oct-15 21:00N 26°04' W 080°07'0 0.8
2017-Oct-15 20:30N 26°05' W 080°07'3 6.3
2017-Oct-15 20:00N 26°06' W 080°04'4 8.6
2017-Oct-15 19:30N 26°05' W 079°59'4 9.0
2017-Oct-15 19:00N 26°04' W 079°54'4 8.8
2017-Oct-15 18:30N 26°04' W 079°49'4 8.9
2017-Oct-15 18:00N 26°03' W 079°44'4 8.8
2017-Oct-15 17:30N 26°03' W 079°39'5 7.3
2017-Oct-15 16:52N 25°58' W 079°37'412.0
2017-Oct-15 16:30N 25°54' W 079°37'611.8
2017-Oct-15 16:00N 25°48' W 079°37'611.7
2017-Oct-15 15:30N 25°42' W 079°37'712.0
2017-Oct-15 14:55N 25°35' W 079°37'  

Dump ship's entire track history